createdAt,value
2018-06-09T00:01:15.722Z,101442.75
2018-06-09T00:03:44.451Z,101441.33
2018-06-09T00:06:13.507Z,101443.09
2018-06-09T00:08:42.235Z,101433.90
2018-06-09T00:11:11.375Z,101428.48
2018-06-09T00:13:40.495Z,101434.38
2018-06-09T00:16:09.227Z,101432.24
2018-06-09T00:18:37.992Z,101429.36
2018-06-09T00:21:07.094Z,101427.14
2018-06-09T00:23:36.162Z,101422.56
2018-06-09T00:26:04.902Z,101420.64
2018-06-09T00:28:33.943Z,101418.23
2018-06-09T00:31:02.680Z,101421.27
2018-06-09T00:33:31.265Z,101416.86
2018-06-09T00:36:00.372Z,101414.91
2018-06-09T00:38:29.105Z,101414.74
2018-06-09T00:40:57.822Z,101416.34
2018-06-09T00:43:26.888Z,101413.77
2018-06-09T00:45:55.662Z,101417.48
2018-06-09T00:48:24.466Z,101421.34
2018-06-09T00:50:53.832Z,101420.05
2018-06-09T00:53:22.556Z,101424.74
2018-06-09T00:56:01.895Z,101426.51
2018-06-09T00:58:30.924Z,101421.89
2018-06-09T01:00:59.748Z,101417.69
2018-06-09T01:03:28.768Z,101409.52
2018-06-09T01:05:57.531Z,101412.47
2018-06-09T01:08:26.313Z,101413.47
2018-06-09T01:10:55.452Z,101411.71
2018-06-09T01:13:27.682Z,101410.63
2018-06-09T01:15:57.060Z,101411.05
2018-06-09T01:18:25.784Z,101415.56
2018-06-09T01:20:54.552Z,101414.62
2018-06-09T01:23:23.699Z,101420.55
2018-06-09T01:25:52.435Z,101415.59
2018-06-09T01:28:21.009Z,101407.31
2018-06-09T01:30:50.036Z,101409.84
2018-06-09T01:33:18.765Z,101403.29
2018-06-09T01:35:47.551Z,101409.48
2018-06-09T01:38:16.643Z,101406.48
2018-06-09T01:40:45.714Z,101407.86
2018-06-09T01:43:14.452Z,101413.45
2018-06-09T01:45:43.523Z,101405.50
2018-06-09T01:48:12.146Z,101403.88
2018-06-09T01:50:40.722Z,101406.96
2018-06-09T01:53:09.797Z,101404.67
2018-06-09T01:55:38.564Z,101408.86
2018-06-09T01:58:07.291Z,101408.34
2018-06-09T02:00:36.470Z,101414.69
2018-06-09T02:03:05.302Z,101421.14
2018-06-09T02:05:34.196Z,101423.45
2018-06-09T02:08:03.142Z,101420.72
2018-06-09T02:10:31.884Z,101419.85
2018-06-09T02:13:00.681Z,101420.22
2018-06-09T02:15:29.824Z,101416.03
2018-06-09T02:17:58.580Z,101415.38
2018-06-09T02:20:27.319Z,101422.78
2018-06-09T02:22:56.500Z,101420.66
2018-06-09T02:25:25.135Z,101412.70
2018-06-09T02:27:53.705Z,101412.16
2018-06-09T02:30:22.656Z,101412.16
2018-06-09T02:32:51.399Z,101415.94
2018-06-09T02:35:19.971Z,101416.37
2018-06-09T02:37:49.439Z,101423.22
2018-06-09T02:40:18.171Z,101420.63
2018-06-09T02:42:47.086Z,101412.02
2018-06-09T02:45:22.359Z,101422.36
2018-06-09T02:47:51.006Z,101421.72
2018-06-09T02:50:19.744Z,101430.23
2018-06-09T02:52:48.831Z,101425.12
2018-06-09T02:55:17.576Z,101423.90
2018-06-09T02:57:46.316Z,101424.16
2018-06-09T03:00:15.390Z,101425.53
2018-06-09T03:02:44.387Z,101419.48
2018-06-09T03:05:13.194Z,101419.89
2018-06-09T03:07:42.300Z,101424.28
2018-06-09T03:10:11.042Z,101423.33
2018-06-09T03:12:39.833Z,101428.02
2018-06-09T03:15:08.768Z,101425.10
2018-06-09T03:17:37.534Z,101424.28
2018-06-09T03:20:06.288Z,101428.62
2018-06-09T03:22:35.309Z,101432.72
2018-06-09T03:25:04.179Z,101429.56
2018-06-09T03:27:33.355Z,101432.95
2018-06-09T03:30:02.129Z,101430.69
2018-06-09T03:32:30.865Z,101430.03
2018-06-09T03:34:59.995Z,101436.58
2018-06-09T03:37:28.820Z,101435.81
2018-06-09T03:39:57.599Z,101434.43
2018-06-09T03:42:26.680Z,101452.54
2018-06-09T03:44:55.749Z,101449.06
2018-06-09T03:47:24.490Z,101453.84
2018-06-09T03:49:53.654Z,101448.64
2018-06-09T03:52:22.544Z,101449.63
2018-06-09T03:54:51.287Z,101442.22
2018-06-09T03:57:20.599Z,101442.52
2018-06-09T03:59:49.337Z,101442.69
2018-06-09T04:02:18.114Z,101443.16
2018-06-09T04:04:47.214Z,101439.70
2018-06-09T04:07:15.940Z,101436.08
2018-06-09T04:09:44.521Z,101437.97
2018-06-09T04:12:14.408Z,101444.67
2018-06-09T04:14:43.023Z,101448.44
2018-06-09T04:17:11.598Z,101447.37
2018-06-09T04:19:40.972Z,101440.38
2018-06-09T04:22:10.007Z,101442.36
2018-06-09T04:24:38.755Z,101437.64
2018-06-09T04:27:07.853Z,101437.30
2018-06-09T04:29:36.827Z,101439.93
2018-06-09T04:32:05.671Z,101440.09
2018-06-09T04:34:34.639Z,101439.03
2018-06-09T04:37:03.368Z,101435.75
2018-06-09T04:39:32.159Z,101439.09
2018-06-09T04:42:01.111Z,101432.74
2018-06-09T04:44:29.849Z,101426.69
2018-06-09T04:46:59.300Z,101429.81
2018-06-09T04:49:28.027Z,101419.81
2018-06-09T04:51:56.838Z,101417.58
2018-06-09T04:54:25.943Z,101418.36
2018-06-09T04:56:54.686Z,101419.09
2018-06-09T04:59:23.448Z,101425.93
2018-06-09T05:01:52.444Z,101423.03
2018-06-09T05:04:21.503Z,101418.48
2018-06-09T05:06:50.540Z,101424.57
2018-06-09T05:09:19.635Z,101422.79
2018-06-09T05:11:48.619Z,101424.79
2018-06-09T05:14:17.368Z,101432.99
2018-06-09T05:16:46.515Z,101434.97
2018-06-09T05:19:15.244Z,101427.88
2018-06-09T05:21:44.038Z,101432.64
2018-06-09T05:24:13.230Z,101431.25
2018-06-09T05:26:41.963Z,101435.34
2018-06-09T05:29:10.779Z,101431.16
2018-06-09T05:31:39.872Z,101422.64
2018-06-09T05:34:08.627Z,101418.39
2018-06-09T05:36:37.382Z,101426.77
2018-06-09T05:39:08.422Z,101427.20
2018-06-09T05:41:37.328Z,101428.27
2018-06-09T05:44:05.912Z,101432.41
2018-06-09T05:46:34.858Z,101430.55
2018-06-09T05:49:03.615Z,101429.05
2018-06-09T05:51:32.371Z,101429.18
2018-06-09T05:54:01.371Z,101429.85
2018-06-09T05:56:30.198Z,101434.53
2018-06-09T05:58:58.928Z,101426.97
2018-06-09T06:01:28.239Z,101426.10
2018-06-09T06:03:57.275Z,101434.09
2018-06-09T06:06:26.092Z,101430.67
2018-06-09T06:08:55.196Z,101432.80
2018-06-09T06:11:23.954Z,101428.95
2018-06-09T06:13:52.700Z,101430.91
2018-06-09T06:16:22.075Z,101434.60
2018-06-09T06:18:50.757Z,101437.05
2018-06-09T06:21:19.478Z,101439.17
2018-06-09T06:23:48.556Z,101444.41
2018-06-09T06:26:17.426Z,101449.80
2018-06-09T06:28:46.183Z,101447.61
2018-06-09T06:31:15.423Z,101449.02
2018-06-09T06:33:44.188Z,101449.67
2018-06-09T06:36:12.943Z,101452.92
2018-06-09T06:38:41.817Z,101457.89
2018-06-09T06:41:10.559Z,101453.80
2018-06-09T06:43:39.458Z,101450.84
2018-06-09T06:46:08.902Z,101452.65
2018-06-09T06:48:37.779Z,101449.29
2018-06-09T06:51:06.566Z,101447.24
2018-06-09T06:53:35.766Z,101442.73
2018-06-09T06:56:04.770Z,101448.91
2018-06-09T06:58:33.794Z,101448.16
2018-06-09T07:01:02.711Z,101459.22
2018-06-09T07:03:31.877Z,101453.00
2018-06-09T07:06:01.388Z,101450.73
2018-06-09T07:08:31.204Z,101453.41
2018-06-09T07:11:00.924Z,101453.73
2018-06-09T07:13:34.995Z,101458.94
2018-06-09T07:16:06.866Z,101457.09
2018-06-09T07:18:36.597Z,101462.78
2018-06-09T07:21:06.082Z,101464.51
2018-06-09T07:23:35.411Z,101465.34
2018-06-09T07:26:04.930Z,101461.61
2018-06-09T07:28:33.704Z,101465.20
2018-06-09T07:31:02.528Z,101458.13
2018-06-09T07:33:31.656Z,101461.79
2018-06-09T07:36:00.414Z,101449.86
2018-06-09T07:38:29.180Z,101455.02
2018-06-09T07:40:58.344Z,101459.02
2018-06-09T07:43:27.422Z,101462.95
2018-06-09T07:45:56.165Z,101472.35
2018-06-09T07:48:25.479Z,101465.74
2018-06-09T07:50:54.210Z,101474.98
2018-06-09T07:53:22.942Z,101476.83
2018-06-09T07:55:52.099Z,101476.67
2018-06-09T07:58:20.858Z,101475.72
2018-06-09T08:00:50.055Z,101469.67
2018-06-09T08:03:18.932Z,101469.41
2018-06-09T08:05:48.072Z,101476.06
2018-06-09T08:08:17.082Z,101471.82
2018-06-09T08:10:46.115Z,101473.58
2018-06-09T08:13:14.742Z,101470.72
2018-06-09T08:15:44.484Z,101473.47
2018-06-09T08:18:13.099Z,101475.46
2018-06-09T08:20:41.936Z,101475.79
2018-06-09T08:23:11.280Z,101473.58
2018-06-09T08:25:39.906Z,101477.34
2018-06-09T08:28:08.798Z,101470.77
2018-06-09T08:30:38.020Z,101481.29
2018-06-09T08:33:06.844Z,101473.49
2018-06-09T08:35:35.672Z,101475.52
2018-06-09T08:38:04.795Z,101472.48
2018-06-09T08:40:33.564Z,101467.34
2018-06-09T08:43:02.242Z,101470.45
2018-06-09T08:45:34.478Z,101471.06
2018-06-09T08:48:03.227Z,101474.12
2018-06-09T08:50:32.434Z,101470.16
2018-06-09T08:53:01.491Z,101474.10
2018-06-09T08:55:30.289Z,101476.48
2018-06-09T08:57:59.200Z,101469.08
2018-06-09T09:00:28.287Z,101472.82
2018-06-09T09:02:57.043Z,101468.00
2018-06-09T09:05:25.832Z,101463.54
2018-06-09T09:07:54.991Z,101463.40
2018-06-09T09:10:23.828Z,101458.85
2018-06-09T09:12:52.608Z,101462.56
2018-06-09T09:15:21.760Z,101459.19
2018-06-09T09:17:50.540Z,101449.01
2018-06-09T09:20:19.178Z,101462.88
2018-06-09T09:22:48.316Z,101445.05
2018-06-09T09:25:17.073Z,101458.83
2018-06-09T09:27:45.831Z,101453.61
2018-06-09T09:30:15.171Z,101458.25
2018-06-09T09:32:43.968Z,101454.58
2018-06-09T09:35:13.064Z,101454.49
2018-06-09T09:37:42.544Z,101459.05
2018-06-09T09:40:11.323Z,101450.27
2018-06-09T09:42:40.428Z,101449.58
2018-06-09T09:45:15.839Z,101447.89
2018-06-09T09:47:44.656Z,101449.59
2018-06-09T09:50:13.441Z,101451.71
2018-06-09T09:52:42.522Z,101453.03
2018-06-09T09:55:11.306Z,101445.09
2018-06-09T09:57:57.608Z,101440.71
2018-06-09T10:00:32.059Z,101439.02
2018-06-09T10:03:01.103Z,101441.03
2018-06-09T10:05:29.895Z,101445.09
2018-06-09T10:07:58.885Z,101449.62
2018-06-09T10:10:28.068Z,101441.05
2018-06-09T10:12:56.855Z,101442.09
2018-06-09T10:15:25.650Z,101434.78
2018-06-09T10:17:54.884Z,101438.53
2018-06-09T10:20:23.642Z,101441.97
2018-06-09T10:22:52.428Z,101435.88
2018-06-09T10:25:21.563Z,101430.41
2018-06-09T10:27:50.336Z,101427.11
2018-06-09T10:30:19.161Z,101427.53
2018-06-09T10:32:48.252Z,101418.73
2018-06-09T10:35:17.071Z,101427.38
2018-06-09T10:37:45.712Z,101420.88
2018-06-09T10:40:14.808Z,101429.13
2018-06-09T10:42:43.563Z,101422.18
2018-06-09T10:45:18.377Z,101423.02
2018-06-09T10:47:47.184Z,101421.67
2018-06-09T10:50:15.928Z,101416.22
2018-06-09T10:52:44.980Z,101412.63
2018-06-09T10:55:13.714Z,101416.14
2018-06-09T10:57:42.848Z,101413.55
2018-06-09T11:00:11.976Z,101414.94
2018-06-09T11:02:40.715Z,101414.72
2018-06-09T11:05:09.292Z,101415.75
2018-06-09T11:07:38.559Z,101414.53
2018-06-09T11:10:07.384Z,101411.27
2018-06-09T11:12:36.163Z,101413.88
2018-06-09T11:15:05.345Z,101405.74
2018-06-09T11:17:34.096Z,101406.70
2018-06-09T11:20:02.905Z,101403.98
2018-06-09T11:22:31.978Z,101405.88
2018-06-09T11:25:00.866Z,101404.56
2018-06-09T11:27:29.624Z,101397.88
2018-06-09T11:29:58.695Z,101396.84
2018-06-09T11:32:27.439Z,101396.34
2018-06-09T11:34:56.190Z,101393.64
2018-06-09T11:37:25.302Z,101390.53
2018-06-09T11:39:54.418Z,101392.67
2018-06-09T11:42:23.170Z,101389.95
2018-06-09T11:44:52.251Z,101394.01
2018-06-09T11:47:20.980Z,101380.48
2018-06-09T11:49:49.776Z,101381.64
2018-06-09T11:52:19.179Z,101383.67
2018-06-09T11:54:47.762Z,101378.61
2018-06-09T11:57:16.341Z,101382.61
2018-06-09T11:59:45.498Z,101379.88
2018-06-09T12:02:14.282Z,101375.05
2018-06-09T12:04:43.020Z,101375.53
2018-06-09T12:07:11.867Z,101366.12
2018-06-09T12:09:40.604Z,101362.71
2018-06-09T12:12:09.168Z,101364.45
2018-06-09T12:14:38.542Z,101361.16
2018-06-09T12:17:07.303Z,101368.83
2018-06-09T12:19:36.119Z,101364.05
2018-06-09T12:22:05.327Z,101358.70
2018-06-09T12:24:34.136Z,101357.67
2018-06-09T12:27:02.952Z,101362.95
2018-06-09T12:29:31.853Z,101356.36
2018-06-09T12:32:00.579Z,101357.48
2018-06-09T12:34:29.315Z,101351.27
2018-06-09T12:36:58.265Z,101343.20
2018-06-09T12:39:27.093Z,101351.56
2018-06-09T12:41:55.908Z,101346.78
2018-06-09T12:44:25.052Z,101348.21
2018-06-09T12:46:53.818Z,101347.39
2018-06-09T12:49:22.563Z,101340.48
2018-06-09T12:51:51.647Z,101345.19
2018-06-09T12:54:20.407Z,101337.31
2018-06-09T12:56:49.402Z,101334.84
2018-06-09T12:59:18.496Z,101330.96
2018-06-09T13:01:47.554Z,101331.20
2018-06-09T13:04:16.354Z,101330.86
2018-06-09T13:06:45.477Z,101328.08
2018-06-09T13:09:14.230Z,101332.71
2018-06-09T13:11:42.968Z,101319.13
2018-06-09T13:14:11.956Z,101327.95
2018-06-09T13:16:40.753Z,101322.21
2018-06-09T13:19:09.504Z,101316.51
2018-06-09T13:21:38.629Z,101321.30
2018-06-09T13:24:07.684Z,101313.73
2018-06-09T13:26:36.437Z,101311.22
2018-06-09T13:29:05.575Z,101303.94
2018-06-09T13:31:34.668Z,101298.36
2018-06-09T13:34:03.456Z,101300.83
2018-06-09T13:36:32.492Z,101303.16
2018-06-09T13:39:01.223Z,101298.20
2018-06-09T13:41:30.037Z,101298.20
2018-06-09T13:43:59.164Z,101297.72
2018-06-09T13:46:27.919Z,101294.01
2018-06-09T13:48:56.668Z,101297.63
2018-06-09T13:51:25.740Z,101295.39
2018-06-09T13:53:54.366Z,101299.75
2018-06-09T13:56:22.946Z,101286.70
2018-06-09T13:58:52.012Z,101293.34
2018-06-09T14:01:21.152Z,101290.36
2018-06-09T14:03:49.922Z,101288.48
2018-06-09T14:06:19.363Z,101283.12
2018-06-09T14:08:48.112Z,101289.31
2018-06-09T14:11:16.866Z,101289.81
2018-06-09T14:13:46.284Z,101287.20
2018-06-09T14:16:15.106Z,101284.44
2018-06-09T14:18:43.922Z,101287.80
2018-06-09T14:21:12.999Z,101282.44
2018-06-09T14:23:41.752Z,101279.91
2018-06-09T14:26:10.498Z,101286.05
2018-06-09T14:28:39.632Z,101289.42
2018-06-09T14:31:08.454Z,101276.14
2018-06-09T14:33:37.275Z,101274.88
2018-06-09T14:36:06.412Z,101278.70
2018-06-09T14:38:35.042Z,101279.34
2018-06-09T14:41:03.630Z,101273.56
2018-06-09T14:43:32.786Z,101271.69
2018-06-09T14:46:01.535Z,101267.81
2018-06-09T14:48:30.259Z,101273.06
2018-06-09T14:50:59.463Z,101276.47
2018-06-09T14:53:28.196Z,101261.70
2018-06-09T14:55:56.993Z,101265.41
2018-06-09T14:58:26.131Z,101256.19
2018-06-09T15:00:54.880Z,101268.69
2018-06-09T15:03:28.424Z,101265.10
2018-06-09T15:05:57.210Z,101258.91
2018-06-09T15:08:26.335Z,101259.70
2018-06-09T15:10:55.403Z,101255.75
2018-06-09T15:13:24.152Z,101261.03
2018-06-09T15:15:52.908Z,101262.48
2018-06-09T15:18:22.293Z,101254.33
2018-06-09T15:20:51.037Z,101248.75
2018-06-09T15:23:19.768Z,101244.35
2018-06-09T15:25:48.841Z,101245.89
2018-06-09T15:28:17.582Z,101255.44
2018-06-09T15:30:46.397Z,101252.67
2018-06-09T15:33:15.363Z,101240.64
2018-06-09T15:35:44.174Z,101238.44
2018-06-09T15:38:12.755Z,101240.14
2018-06-09T15:40:41.913Z,101239.38
2018-06-09T15:43:10.732Z,101246.68
2018-06-09T15:45:45.839Z,101237.13
2018-06-09T15:48:14.603Z,101248.31
2018-06-09T15:50:43.339Z,101243.27
2018-06-09T15:53:12.435Z,101242.20
2018-06-09T15:55:41.172Z,101241.31
2018-06-09T15:58:09.908Z,101239.23
2018-06-09T16:00:38.984Z,101238.07
2018-06-09T16:03:08.079Z,101234.98
2018-06-09T16:05:36.706Z,101244.16
2018-06-09T16:08:05.657Z,101235.80
2018-06-09T16:10:34.603Z,101230.47
2018-06-09T16:13:03.196Z,101231.70
2018-06-09T16:15:32.531Z,101237.55
2018-06-09T16:18:01.153Z,101241.35
2018-06-09T16:20:29.880Z,101235.74
2018-06-09T16:22:59.011Z,101233.52
2018-06-09T16:25:27.760Z,101231.84
2018-06-09T16:27:56.513Z,101235.02
2018-06-09T16:30:25.999Z,101242.09
2018-06-09T16:32:54.613Z,101236.94
2018-06-09T16:35:23.371Z,101238.88
2018-06-09T16:37:52.472Z,101235.77
2018-06-09T16:40:21.211Z,101239.40
2018-06-09T16:42:50.016Z,101229.53
2018-06-09T16:45:19.062Z,101235.55
2018-06-09T16:47:48.060Z,101226.30
2018-06-09T16:50:16.844Z,101214.56
2018-06-09T16:52:45.947Z,101218.72
2018-06-09T16:55:14.824Z,101223.00
2018-06-09T16:57:43.941Z,101218.48
2018-06-09T17:00:12.992Z,101214.94
2018-06-09T17:02:41.751Z,101212.03
2018-06-09T17:05:10.757Z,101211.42
2018-06-09T17:07:39.854Z,101217.77
2018-06-09T17:10:08.623Z,101221.02
2018-06-09T17:12:37.220Z,101212.59
2018-06-09T17:15:06.364Z,101215.83
2018-06-09T17:17:35.153Z,101216.19
2018-06-09T17:20:04.060Z,101215.60
2018-06-09T17:22:33.137Z,101216.70
2018-06-09T17:25:01.960Z,101217.84
2018-06-09T17:27:31.075Z,101215.22
2018-06-09T17:30:00.048Z,101216.31
2018-06-09T17:32:29.182Z,101211.18
2018-06-09T17:34:57.936Z,101216.00
2018-06-09T17:37:27.004Z,101216.32
2018-06-09T17:39:55.772Z,101222.86
2018-06-09T17:42:24.528Z,101228.03
2018-06-09T17:44:53.780Z,101228.95
2018-06-09T17:47:22.571Z,101227.08
2018-06-09T17:49:51.342Z,101227.87
2018-06-09T17:52:20.463Z,101220.70
2018-06-09T17:54:49.207Z,101227.25
2018-06-09T17:57:18.438Z,101224.73
2018-06-09T17:59:48.832Z,101224.91
2018-06-09T18:02:18.035Z,101227.88
2018-06-09T18:04:46.823Z,101239.53
2018-06-09T18:07:15.888Z,101237.05
2018-06-09T18:09:44.707Z,101239.70
2018-06-09T18:12:13.659Z,101240.97
2018-06-09T18:14:42.717Z,101242.52
2018-06-09T18:17:11.475Z,101243.61
2018-06-09T18:19:40.121Z,101243.91
2018-06-09T18:22:09.256Z,101240.75
2018-06-09T18:24:37.842Z,101245.45
2018-06-09T18:27:06.623Z,101249.00
2018-06-09T18:29:35.582Z,101247.03
2018-06-09T18:32:04.373Z,101251.02
2018-06-09T18:34:33.219Z,101247.25
2018-06-09T18:37:02.366Z,101252.62
2018-06-09T18:39:31.136Z,101246.73
2018-06-09T18:41:59.921Z,101249.20
2018-06-09T18:44:28.991Z,101253.20
2018-06-09T18:46:57.806Z,101258.30
2018-06-09T18:49:26.596Z,101251.08
2018-06-09T18:51:55.820Z,101252.16
2018-06-09T18:54:24.903Z,101257.55
2018-06-09T18:56:53.798Z,101257.51
2018-06-09T18:59:22.938Z,101256.84
2018-06-09T19:01:51.526Z,101258.59
2018-06-09T19:04:20.354Z,101262.73
2018-06-09T19:06:49.440Z,101260.02
2018-06-09T19:09:18.211Z,101264.22
2018-06-09T19:11:47.080Z,101262.73
2018-06-09T19:14:16.254Z,101267.17
2018-06-09T19:16:45.034Z,101268.91
2018-06-09T19:19:13.820Z,101270.10
2018-06-09T19:21:42.927Z,101268.30
2018-06-09T19:24:12.191Z,101266.54
2018-06-09T19:26:40.970Z,101267.87
2018-06-09T19:29:10.111Z,101263.41
2018-06-09T19:31:38.938Z,101278.98
2018-06-09T19:34:07.852Z,101281.41
2018-06-09T19:36:36.987Z,101284.87
2018-06-09T19:39:08.605Z,101284.87
2018-06-09T19:41:38.002Z,101292.47
2018-06-09T19:44:06.774Z,101290.37
2018-06-09T19:46:35.579Z,101298.86
2018-06-09T19:49:04.702Z,101293.50
2018-06-09T19:51:33.447Z,101294.14
2018-06-09T19:54:02.244Z,101295.63
2018-06-09T19:56:31.400Z,101302.20
2018-06-09T19:59:00.213Z,101304.11
2018-06-09T20:01:28.997Z,101304.02
2018-06-09T20:03:58.080Z,101296.20
2018-06-09T20:06:26.817Z,101295.34
2018-06-09T20:08:55.399Z,101295.75
2018-06-09T20:11:24.457Z,101292.44
2018-06-09T20:13:53.073Z,101291.94
2018-06-09T20:16:21.808Z,101302.29
2018-06-09T20:18:50.928Z,101302.51
2018-06-09T20:21:20.060Z,101295.03
2018-06-09T20:23:48.663Z,101295.42
2018-06-09T20:26:18.010Z,101298.64
2018-06-09T20:28:47.070Z,101303.52
2018-06-09T20:31:15.894Z,101302.83
2018-06-09T20:33:44.995Z,101306.50
2018-06-09T20:36:13.800Z,101306.34
2018-06-09T20:38:42.731Z,101301.78
2018-06-09T20:41:11.977Z,101305.66
2018-06-09T20:43:40.744Z,101314.20
2018-06-09T20:46:09.475Z,101306.12
2018-06-09T20:48:38.650Z,101308.47
2018-06-09T20:51:07.296Z,101311.92
2018-06-09T20:53:36.105Z,101315.13
2018-06-09T20:56:05.179Z,101319.99
2018-06-09T20:58:39.464Z,101323.91
2018-06-09T21:01:08.843Z,101319.91
2018-06-09T21:03:37.608Z,101318.59
2018-06-09T21:06:06.644Z,101318.47
2018-06-09T21:08:35.675Z,101305.63
2018-06-09T21:11:04.287Z,101299.23
2018-06-09T21:13:34.014Z,101296.59
2018-06-09T21:16:03.123Z,101292.61
2018-06-09T21:18:31.891Z,101288.08
2018-06-09T21:21:00.647Z,101282.50
2018-06-09T21:23:29.590Z,101282.18
2018-06-09T21:25:58.376Z,101284.08
2018-06-09T21:28:28.020Z,101280.38
2018-06-09T21:31:02.824Z,101269.19
2018-06-09T21:33:54.241Z,101274.51
2018-06-09T21:36:29.699Z,101273.11
2018-06-09T21:38:59.370Z,101269.61
2018-06-09T21:41:35.212Z,101271.72
2018-06-09T21:44:09.593Z,101272.77
2018-06-09T21:46:48.096Z,101267.53
2018-06-09T21:49:17.610Z,101271.61
2018-06-09T21:51:46.372Z,101267.08
2018-06-09T21:54:15.419Z,101274.05
2018-06-09T21:56:44.256Z,101277.82
2018-06-09T21:59:13.333Z,101277.87
2018-06-09T22:01:42.520Z,101279.88
2018-06-09T22:04:11.265Z,101283.62
2018-06-09T22:06:40.027Z,101281.08
2018-06-09T22:09:09.243Z,101282.47
2018-06-09T22:11:38.302Z,101276.84
2018-06-09T22:14:07.470Z,101274.23
2018-06-09T22:16:36.548Z,101275.55
2018-06-09T22:19:05.365Z,101273.45
2018-06-09T22:21:34.155Z,101273.53
2018-06-09T22:24:03.318Z,101273.44
2018-06-09T22:26:32.067Z,101267.75
2018-06-09T22:29:00.790Z,101272.30
2018-06-09T22:31:29.890Z,101262.67
2018-06-09T22:33:58.509Z,101265.62
2018-06-09T22:36:27.255Z,101265.50
2018-06-09T22:38:56.361Z,101266.19
2018-06-09T22:41:25.091Z,101258.73
2018-06-09T22:43:53.664Z,101254.48
2018-06-09T22:46:22.837Z,101258.14
2018-06-09T22:48:51.583Z,101253.55
2018-06-09T22:51:27.279Z,101251.81
2018-06-09T22:53:55.882Z,101254.88
2018-06-09T22:56:24.699Z,101249.68
2018-06-09T22:58:53.641Z,101255.64
2018-06-09T23:01:22.374Z,101253.26
2018-06-09T23:03:51.384Z,101249.16
2018-06-09T23:06:20.419Z,101251.22
2018-06-09T23:08:49.050Z,101252.77
2018-06-09T23:11:17.957Z,101257.42
2018-06-09T23:13:47.122Z,101250.91
2018-06-09T23:16:15.868Z,101248.55
2018-06-09T23:18:44.592Z,101245.48
2018-06-09T23:21:13.771Z,101236.78
2018-06-09T23:23:42.521Z,101232.02
2018-06-09T23:26:11.264Z,101227.09
2018-06-09T23:28:40.610Z,101221.23
2018-06-09T23:31:09.650Z,101212.86
2018-06-09T23:33:38.598Z,101213.36
2018-06-09T23:36:07.742Z,101204.33
2018-06-09T23:38:36.475Z,101211.44
2018-06-09T23:41:05.121Z,101208.80
2018-06-09T23:43:34.161Z,101206.55
2018-06-09T23:46:07.364Z,101202.00
2018-06-09T23:48:36.494Z,101201.95
2018-06-09T23:51:05.227Z,101198.14
2018-06-09T23:53:33.796Z,101199.13
2018-06-09T23:56:03.067Z,101196.62
2018-06-09T23:58:31.709Z,101196.16
